Time;durP1;ratioP1;P1;durP2;ratioP2;P2;SDS_P1;SDS_P2;PMS_P1;PMS_P2;Temp;Humidity;BMP_temperature;BMP_pressure;BME280_temperature;BME280_humidity;BME280_pressure;Samples;Min_cycle;Max_cycle;Signal;HPM_P1;HPM_P2
2021/05/04 00:00:36;;;;;;;3.80;2.08;;;;;;;17.94;39.62;100574.47;5011252;28;20412;-79
2021/05/04 00:03:02;;;;;;;3.92;1.88;;;;;;;17.84;39.15;100580.44;5009597;28;20415;-79
2021/05/04 00:05:27;;;;;;;4.80;2.30;;;;;;;17.79;39.46;100577.78;5011369;28;20017;-78
2021/05/04 00:07:53;;;;;;;4.88;2.20;;;;;;;17.64;38.67;100559.34;5025650;28;20026;-79
2021/05/04 00:10:19;;;;;;;4.20;1.88;;;;;;;17.55;38.02;100554.94;5010715;28;20088;-79
2021/05/04 00:12:45;;;;;;;4.82;2.03;;;;;;;17.50;38.50;100559.22;5010164;28;20042;-74
2021/05/04 00:15:11;;;;;;;6.22;2.38;;;;;;;17.34;38.91;100552.97;5011471;28;20472;-74
2021/05/04 00:17:36;;;;;;;5.55;2.22;;;;;;;17.10;38.84;100517.94;5011270;28;20088;-74
2021/05/04 00:20:03;;;;;;;3.97;2.00;;;;;;;17.21;39.74;100541.53;5011268;28;20025;-74
2021/05/04 00:22:29;;;;;;;3.65;2.08;;;;;;;17.38;38.93;100574.75;5011203;28;20018;-74
2021/05/04 00:24:54;;;;;;;5.90;2.30;;;;;;;17.00;39.91;100538.69;5011080;28;20374;-72
2021/05/04 00:27:19;;;;;;;4.22;1.88;;;;;;;16.80;40.05;100513.22;5011171;28;20439;-73
2021/05/04 00:29:45;;;;;;;3.17;2.08;;;;;;;17.02;39.52;100571.75;5010672;28;20464;-75
2021/05/04 00:32:10;;;;;;;3.90;1.90;;;;;;;16.95;40.13;100570.81;5010639;28;20037;-73
2021/05/04 00:34:36;;;;;;;3.58;1.70;;;;;;;16.88;40.30;100578.50;5011167;28;20026;-73
2021/05/04 00:37:01;;;;;;;2.90;1.67;;;;;;;16.25;40.76;100476.88;5010954;28;20087;-72
2021/05/04 00:39:33;;;;;;;3.42;1.85;;;;;;;16.58;40.87;100544.22;5010576;28;20022;-72
2021/05/04 00:41:59;;;;;;;2.00;1.70;;;;;;;16.80;41.17;100589.69;5010723;28;20555;-70
2021/05/04 00:44:24;;;;;;;5.97;1.80;;;;;;;16.75;40.93;100593.13;5010466;28;20161;-73
2021/05/04 00:46:50;;;;;;;3.42;1.88;;;;;;;16.77;41.27;100583.56;5022234;28;20038;-71
2021/05/04 00:49:15;;;;;;;3.47;1.88;;;;;;;16.91;41.33;100608.13;5010965;28;20048;-74
2021/05/04 00:51:41;;;;;;;3.25;2.10;;;;;;;16.81;41.63;100601.88;5010319;28;20404;-71
2021/05/04 00:54:07;;;;;;;3.63;1.73;;;;;;;16.77;41.49;100599.22;5010665;28;20041;-74
2021/05/04 00:56:34;;;;;;;5.70;2.30;;;;;;;16.79;41.69;100569.69;5008379;28;20034;-72
2021/05/04 00:59:00;;;;;;;3.75;2.13;;;;;;;17.05;41.84;100613.53;5010437;28;20053;-73
2021/05/04 01:01:25;;;;;;;7.75;2.00;;;;;;;17.15;41.60;100617.13;5010535;28;20472;-74
2021/05/04 01:03:52;;;;;;;3.78;1.92;;;;;;;17.10;41.12;100601.41;5010336;28;20026;-71
2021/05/04 01:06:17;;;;;;;3.30;1.90;;;;;;;17.15;41.04;100609.31;5010879;28;20033;-70
2021/05/04 01:08:43;;;;;;;3.35;1.92;;;;;;;16.91;41.68;100563.81;5010521;28;20481;-73
2021/05/04 01:11:08;;;;;;;4.35;2.17;;;;;;;17.20;41.27;100615.44;5010550;28;20026;-71
2021/05/04 01:13:34;;;;;;;3.83;1.92;;;;;;;17.12;41.31;100619.69;5010504;28;20048;-73
2021/05/04 01:16:00;;;;;;;5.10;1.98;;;;;;;16.94;41.66;100608.16;5010600;28;20743;-76
2021/05/04 01:18:25;;;;;;;4.35;1.55;;;;;;;16.27;41.51;100502.09;5010388;28;20028;-73
2021/05/04 01:20:51;;;;;;;3.55;1.90;;;;;;;16.46;42.46;100542.34;5010745;28;20030;-73
2021/05/04 01:23:17;;;;;;;6.18;1.90;;;;;;;16.87;41.19;100602.81;5014708;28;20041;-74
2021/05/04 01:25:43;;;;;;;2.83;2.00;;;;;;;16.84;41.95;100614.09;5014580;28;20424;-72
2021/05/04 01:28:08;;;;;;;3.53;2.00;;;;;;;16.82;41.87;100621.91;5014332;28;20018;-74
2021/05/04 01:30:34;;;;;;;3.70;2.10;;;;;;;16.72;40.80;100637.38;5014167;28;20083;-70
2021/05/04 01:33:00;;;;;;;3.67;1.90;;;;;;;16.57;41.08;100623.25;5014260;28;20026;-73
2021/05/04 01:35:27;;;;;;;6.53;1.85;;;;;;;16.38;41.97;100595.19;5013976;28;20029;-73
2021/05/04 01:37:54;;;;;;;3.83;1.90;;;;;;;16.44;41.79;100635.22;5010943;28;20488;-81
2021/05/04 01:40:20;;;;;;;3.38;1.75;;;;;;;16.56;41.25;100644.09;5012166;28;20396;-79
2021/05/04 01:42:46;;;;;;;6.72;1.67;;;;;;;16.50;41.62;100639.69;5015031;28;20034;-79
2021/05/04 01:45:15;;;;;;;5.20;1.80;;;;;;;16.46;41.49;100633.53;5013647;28;20427;-77
2021/05/04 01:47:41;;;;;;;5.75;2.30;;;;;;;16.49;42.07;100641.38;5014798;28;20096;-76
2021/05/04 01:50:08;;;;;;;2.78;1.75;;;;;;;16.45;41.78;100634.38;5015290;28;20029;-77
2021/05/04 01:52:34;;;;;;;5.03;2.40;;;;;;;16.23;41.88;100594.09;5013699;28;20030;-81
2021/05/04 01:55:01;;;;;;;5.80;2.20;;;;;;;16.42;42.05;100629.09;5029864;28;20410;-78
2021/05/04 01:57:26;;;;;;;3.70;2.05;;;;;;;16.39;41.89;100633.44;5014669;28;20112;-79
2021/05/04 01:59:53;;;;;;;3.67;1.90;;;;;;;16.32;42.45;100642.84;5014931;28;20548;-79
2021/05/04 02:02:18;;;;;;;3.60;1.80;;;;;;;16.26;42.78;100624.53;5014638;28;20034;-79
2021/05/04 02:04:44;;;;;;;5.82;1.80;;;;;;;16.34;43.00;100631.59;5014447;28;20080;-82
2021/05/04 02:07:09;;;;;;;3.67;2.10;;;;;;;16.08;43.50;100588.66;5014684;28;20057;-81
2021/05/04 02:09:35;;;;;;;3.03;2.05;;;;;;;16.22;43.63;100631.41;5014474;28;20108;-78
2021/05/04 02:12:00;;;;;;;3.60;1.90;;;;;;;16.41;43.51;100637.81;5012787;28;20034;-79
2021/05/04 02:14:27;;;;;;;4.38;1.98;;;;;;;16.52;43.63;100637.94;5014550;28;20032;-80
2021/05/04 02:16:53;;;;;;;4.00;1.73;;;;;;;16.54;43.81;100635.38;5014253;28;20116;-82
2021/05/04 02:19:19;;;;;;;2.72;1.80;;;;;;;16.62;43.85;100633.75;5014505;28;20105;-77
2021/05/04 02:21:44;;;;;;;2.92;1.98;;;;;;;16.61;43.30;100638.09;5014323;28;20030;-82
2021/05/04 02:24:10;;;;;;;4.55;2.00;;;;;;;16.50;43.22;100647.50;5014291;28;20033;-79
2021/05/04 02:26:35;;;;;;;2.65;1.95;;;;;;;16.41;43.73;100642.13;5012757;28;20404;-76
2021/05/04 02:29:01;;;;;;;4.03;1.90;;;;;;;16.43;43.98;100632.63;5013013;28;20488;-81
2021/05/04 02:31:26;;;;;;;3.53;1.92;;;;;;;16.47;44.38;100648.31;5012919;28;20037;-82
2021/05/04 02:33:52;;;;;;;6.07;2.03;;;;;;;16.47;44.03;100645.72;5013577;28;20037;-78
2021/05/04 02:36:17;;;;;;;2.92;1.83;;;;;;;16.45;43.99;100651.75;5014030;28;20045;-78
2021/05/04 02:38:43;;;;;;;4.22;1.83;;;;;;;16.34;43.61;100656.78;5013758;28;20076;-79
2021/05/04 02:41:09;;;;;;;4.57;1.92;;;;;;;16.32;44.60;100667.19;5013700;28;20092;-82
2021/05/04 02:43:35;;;;;;;3.22;1.73;;;;;;;16.36;43.38;100667.22;5013809;28;20030;-82
2021/05/04 02:46:02;;;;;;;3.60;2.00;;;;;;;16.33;43.20;100675.88;5012753;28;20404;-80
2021/05/04 02:48:28;;;;;;;3.15;1.83;;;;;;;16.23;43.37;100682.66;5014077;28;20533;-77
2021/05/04 02:50:54;;;;;;;3.38;1.77;;;;;;;16.11;43.70;100667.72;5012667;28;20034;-78
2021/05/04 02:53:21;;;;;;;3.92;1.88;;;;;;;16.21;43.67;100689.56;5012370;28;20029;-81
2021/05/04 02:55:47;;;;;;;4.43;1.70;;;;;;;16.27;44.25;100688.81;5012187;28;20389;-78
2021/05/04 02:58:12;;;;;;;5.65;2.08;;;;;;;16.34;43.66;100685.44;5013774;28;20022;-77
2021/05/04 03:00:38;;;;;;;3.03;1.80;;;;;;;16.45;43.75;100686.50;5013651;28;20385;-77
2021/05/04 03:03:04;;;;;;;4.13;1.90;;;;;;;16.32;43.77;100664.59;5013747;28;20036;-79
2021/05/04 03:05:29;;;;;;;3.50;2.20;;;;;;;16.42;43.53;100701.22;5013805;28;20066;-83
2021/05/04 03:07:55;;;;;;;3.42;1.90;;;;;;;16.40;43.16;100705.50;5012233;28;20018;-81
2021/05/04 03:10:20;;;;;;;4.07;2.13;;;;;;;16.35;43.44;100697.63;5013414;28;20109;-77
2021/05/04 03:12:46;;;;;;;4.40;2.28;;;;;;;16.28;43.16;100701.84;5012055;28;20054;-76
2021/05/04 03:15:12;;;;;;;4.95;2.45;;;;;;;16.21;43.12;100697.38;5012069;28;20083;-80
2021/05/04 03:17:37;;;;;;;4.47;1.83;;;;;;;15.84;43.13;100671.56;5013519;28;20108;-76
2021/05/04 03:20:05;;;;;;;3.40;1.92;;;;;;;15.94;43.69;100721.22;5013207;28;20022;-77
2021/05/04 03:22:30;;;;;;;3.60;1.92;;;;;;;15.83;43.61;100715.78;5012968;28;20117;-81
2021/05/04 03:24:56;;;;;;;5.15;1.98;;;;;;;15.76;43.46;100711.28;5012937;28;20057;-80
2021/05/04 03:27:24;;;;;;;6.97;2.75;;;;;;;15.71;44.31;100729.41;5013251;28;20033;-79
2021/05/04 03:29:49;;;;;;;3.60;2.00;;;;;;;15.55;44.35;100703.91;5013152;28;20032;-81
2021/05/04 03:32:15;;;;;;;3.10;1.90;;;;;;;15.73;44.78;100730.31;5013085;28;20029;-78
2021/05/04 03:34:40;;;;;;;5.72;2.13;;;;;;;15.61;44.39;100730.94;5011164;28;20033;-79
2021/05/04 03:37:06;;;;;;;2.85;1.90;;;;;;;15.29;44.75;100692.13;5010965;28;20038;-78
2021/05/04 03:39:31;;;;;;;6.05;2.30;;;;;;;15.33;45.09;100699.16;5028221;28;20026;-79
2021/05/04 03:41:57;;;;;;;5.88;2.10;;;;;;;15.52;45.47;100741.16;5009354;28;20404;-77
2021/05/04 03:44:22;;;;;;;4.90;2.20;;;;;;;15.50;45.52;100750.66;5011546;28;20096;-77
2021/05/04 03:46:48;;;;;;;6.97;2.00;;;;;;;15.57;45.81;100757.75;5027957;28;20121;-80
2021/05/04 03:49:13;;;;;;;2.80;2.03;;;;;;;15.40;46.80;100759.97;5012671;28;20037;-77
2021/05/04 03:51:39;;;;;;;4.28;2.00;;;;;;;15.40;46.55;100769.53;5012500;28;20084;-78
2021/05/04 03:54:05;;;;;;;5.45;2.15;;;;;;;15.34;46.82;100771.16;5011154;28;20577;-76
2021/05/04 03:56:31;;;;;;;4.38;2.15;;;;;;;14.70;47.08;100674.34;5013072;28;20032;-78
2021/05/04 03:58:56;;;;;;;4.05;2.10;;;;;;;15.10;47.45;100713.38;5012664;28;20025;-80
2021/05/04 04:01:22;;;;;;;4.18;2.17;;;;;;;15.21;47.14;100727.50;5012212;28;20029;-77
2021/05/04 04:03:48;;;;;;;6.13;2.28;;;;;;;15.43;47.46;100759.19;5012555;28;20029;-76
2021/05/04 04:06:14;;;;;;;4.90;1.98;;;;;;;15.49;47.22;100770.59;5011293;28;20553;-81
2021/05/04 04:08:40;;;;;;;3.95;1.90;;;;;;;15.46;46.39;100769.66;5010501;28;20034;-79
2021/05/04 04:11:05;;;;;;;6.82;2.00;;;;;;;15.41;46.24;100766.06;5012481;28;20079;-82
2021/05/04 04:13:33;;;;;;;7.68;2.22;;;;;;;15.47;45.76;100764.47;5011980;28;20523;-78
2021/05/04 04:15:58;;;;;;;4.28;2.20;;;;;;;15.51;45.73;100765.41;5027626;28;20526;-78
2021/05/04 04:18:24;;;;;;;3.72;2.15;;;;;;;15.63;45.55;100763.09;5012420;28;20117;-81
2021/05/04 04:20:49;;;;;;;2.83;2.10;;;;;;;15.68;45.47;100771.84;5011034;28;20476;-77
2021/05/04 04:23:15;;;;;;;5.30;1.98;;;;;;;15.84;45.97;100774.81;5010819;28;20041;-81
2021/05/04 04:25:40;;;;;;;5.75;2.00;;;;;;;15.88;46.55;100783.59;5012516;28;20123;-77
2021/05/04 04:28:05;;;;;;;4.28;2.13;;;;;;;15.95;46.28;100781.13;5010862;28;20065;-79
2021/05/04 04:30:31;;;;;;;3.30;1.88;;;;;;;16.08;46.41;100779.63;5010881;28;20060;-77
2021/05/04 04:32:56;;;;;;;3.00;2.00;;;;;;;16.27;45.78;100782.59;5011904;28;20022;-77
2021/05/04 04:35:22;;;;;;;3.80;2.10;;;;;;;16.33;45.41;100798.34;5011896;28;20041;-78
2021/05/04 04:37:47;;;;;;;3.63;2.10;;;;;;;16.14;44.83;100789.31;5011850;28;20030;-80
2021/05/04 04:40:13;;;;;;;4.00;2.20;;;;;;;16.01;45.58;100789.06;5012224;28;20017;-77
2021/05/04 04:42:39;;;;;;;7.32;2.55;;;;;;;15.97;45.81;100804.59;5011970;28;20123;-80
2021/05/04 04:45:05;;;;;;;4.32;2.35;;;;;;;15.93;45.19;100807.97;5011901;28;20036;-82
2021/05/04 04:47:31;;;;;;;3.00;2.03;;;;;;;15.96;46.49;100803.72;5011652;28;20033;-81
2021/05/04 04:49:56;;;;;;;4.25;2.42;;;;;;;15.98;47.08;100801.13;5010482;28;20029;-82
2021/05/04 04:52:22;;;;;;;5.25;2.10;;;;;;;15.64;46.86;100744.03;5011445;28;20555;-77
2021/05/04 04:54:47;;;;;;;5.13;2.05;;;;;;;16.23;45.74;100802.50;5011818;28;20061;-77
2021/05/04 04:57:13;;;;;;;3.45;2.40;;;;;;;16.32;46.90;100800.06;5010154;28;20120;-77
2021/05/04 04:59:38;;;;;;;5.70;2.17;;;;;;;16.22;47.16;100789.44;5010494;28;20029;-81
2021/05/04 05:02:04;;;;;;;4.75;2.45;;;;;;;16.30;45.97;100796.56;5011649;28;20026;-80
2021/05/04 05:04:29;;;;;;;3.55;2.17;;;;;;;16.37;45.95;100805.34;5010361;28;20412;-81
2021/05/04 05:06:55;;;;;;;4.28;2.10;;;;;;;16.24;46.43;100783.41;5011900;28;20396;-77
2021/05/04 05:09:20;;;;;;;3.67;2.25;;;;;;;16.46;46.29;100808.13;5011703;28;20026;-80
2021/05/04 05:11:46;;;;;;;5.55;2.15;;;;;;;16.43;46.10;100799.38;5011688;28;20069;-77
2021/05/04 05:14:11;;;;;;;3.10;1.92;;;;;;;16.37;45.14;100788.84;5004074;28;20488;-77
2021/05/04 05:16:37;;;;;;;5.60;2.53;;;;;;;16.45;46.22;100795.09;5007923;28;20037;-78
2021/05/04 05:19:04;;;;;;;7.18;2.05;;;;;;;16.50;45.41;100790.84;4993672;28;20035;-78
2021/05/04 05:21:31;;;;;;;3.80;1.98;;;;;;;16.27;44.84;100767.81;5001837;28;20022;-76
2021/05/04 05:23:58;;;;;;;3.00;1.85;;;;;;;16.45;45.68;100808.13;5010724;28;20038;-78
2021/05/04 05:26:24;;;;;;;5.68;2.10;;;;;;;16.45;45.65;100803.78;5011048;28;20021;-77
2021/05/04 05:28:54;;;;;;;4.65;2.92;;;;;;;16.28;44.66;100771.31;5016155;28;20038;-79
2021/05/04 05:31:20;;;;;;;5.22;2.20;;;;;;;16.45;45.93;100801.16;5009525;28;20103;-77
2021/05/04 05:33:46;;;;;;;6.88;2.15;;;;;;;16.55;47.18;100802.22;5005942;28;20124;-80
2021/05/04 05:36:12;;;;;;;4.78;1.90;;;;;;;16.50;46.73;100769.97;5009285;28;20121;-80
2021/05/04 05:38:37;;;;;;;4.18;1.95;;;;;;;16.96;46.07;100816.84;5010105;28;20057;-79
2021/05/04 05:41:06;;;;;;;2.85;1.85;;;;;;;16.86;46.39;100818.38;5011280;28;20034;-79
2021/05/04 05:43:32;;;;;;;3.95;2.38;;;;;;;16.72;46.04;100819.88;5011212;28;20427;-76
2021/05/04 05:45:58;;;;;;;5.63;2.15;;;;;;;16.37;45.84;100815.78;5010118;28;20041;-82
2021/05/04 05:48:24;;;;;;;7.28;2.40;;;;;;;16.48;47.79;100822.06;5010053;28;20408;-81
2021/05/04 05:50:50;;;;;;;4.53;2.00;;;;;;;16.40;46.28;100801.91;5011031;28;20029;-79
2021/05/04 05:53:15;;;;;;;8.07;1.98;;;;;;;16.69;47.28;100814.63;5026497;28;20045;-79
2021/05/04 05:55:41;;;;;;;4.70;2.03;;;;;;;16.69;44.79;100784.19;5011225;28;20038;-80
2021/05/04 05:58:07;;;;;;;7.68;2.00;;;;;;;16.95;44.15;100797.69;5011315;28;20028;-77
2021/05/04 06:00:32;;;;;;;4.95;2.53;;;;;;;17.04;45.77;100793.50;5009866;28;20029;-82
2021/05/04 06:03:02;;;;;;;5.70;2.05;;;;;;;17.11;44.84;100817.06;5011170;28;20153;-83
2021/05/04 06:05:28;;;;;;;4.63;2.00;;;;;;;17.24;44.65;100819.88;5010984;28;20467;-82
2021/05/04 06:07:53;;;;;;;4.45;2.20;;;;;;;17.34;43.72;100805.25;5011855;28;20033;-82
2021/05/04 06:10:19;;;;;;;5.40;2.20;;;;;;;17.20;43.19;100812.88;5031845;28;20419;-78
2021/05/04 06:12:44;;;;;;;4.95;2.20;;;;;;;17.22;44.13;100825.09;5031479;28;20132;-78
2021/05/04 06:15:11;;;;;;;3.88;2.42;;;;;;;17.20;43.37;100829.38;5031913;28;20046;-81
2021/05/04 06:17:36;;;;;;;3.13;2.10;;;;;;;17.07;45.05;100819.59;5032481;28;20037;-83
2021/05/04 06:20:02;;;;;;;3.17;2.08;;;;;;;17.12;44.53;100820.56;5031667;28;20037;-82
2021/05/04 06:22:27;;;;;;;3.67;2.15;;;;;;;17.01;45.62;100794.31;5031821;28;20116;-82
2021/05/04 06:24:53;;;;;;;3.35;2.13;;;;;;;17.44;43.34;100835.81;5031970;28;20041;-80
2021/05/04 06:27:18;;;;;;;4.18;2.00;;;;;;;17.63;42.43;100822.19;5031593;28;20033;-81
2021/05/04 06:29:45;;;;;;;6.35;2.50;;;;;;;17.88;41.75;100817.28;5031727;28;20037;-81
2021/05/04 06:32:12;;;;;;;3.92;1.90;;;;;;;18.00;41.10;100816.56;5031328;28;20558;-77
2021/05/04 06:34:38;;;;;;;4.13;1.70;;;;;;;18.07;40.00;100830.59;5031578;28;20068;-80
2021/05/04 06:37:04;;;;;;;4.20;1.92;;;;;;;18.04;41.47;100822.72;5031840;28;20115;-82
2021/05/04 06:39:30;;;;;;;4.07;2.30;;;;;;;18.04;40.62;100825.34;5031562;28;20496;-77
2021/05/04 06:41:56;;;;;;;2.97;2.00;;;;;;;17.88;42.65;100827.72;5018198;28;20124;-81
2021/05/04 06:44:22;;;;;;;2.92;2.05;;;;;;;18.02;41.94;100821.81;5012592;28;20065;-81
2021/05/04 06:46:48;;;;;;;3.13;2.00;;;;;;;17.98;42.45;100826.16;5012672;28;20531;-81
2021/05/04 06:49:13;;;;;;;3.72;2.03;;;;;;;17.86;41.52;100819.00;5013617;28;20484;-77
2021/05/04 06:51:39;;;;;;;3.42;2.17;;;;;;;17.97;42.54;100829.63;5012593;28;20030;-77
2021/05/04 06:54:04;;;;;;;3.13;1.90;;;;;;;18.13;42.77;100829.78;5013459;28;20036;-77
2021/05/04 06:56:30;;;;;;;4.72;2.10;;;;;;;18.10;42.59;100822.78;5013600;28;20447;-80
2021/05/04 06:58:55;;;;;;;3.40;2.00;;;;;;;18.16;41.25;100811.53;4996131;28;20025;-80
2021/05/04 07:01:20;;;;;;;2.75;1.92;;;;;;;18.17;42.32;100823.72;5012411;28;20088;-80
2021/05/04 07:03:46;;;;;;;3.38;1.90;;;;;;;18.28;40.98;100824.75;5013534;28;20133;-79
2021/05/04 07:06:11;;;;;;;6.25;2.40;;;;;;;18.38;40.73;100825.69;5013801;28;20089;-82
2021/05/04 07:08:37;;;;;;;2.65;1.80;;;;;;;18.57;40.75;100805.88;5013710;28;20523;-76
2021/05/04 07:11:02;;;;;;;3.60;2.10;;;;;;;18.98;38.52;100821.06;5013405;28;20030;-78
2021/05/04 07:13:28;;;;;;;2.97;1.80;;;;;;;19.16;37.45;100809.84;5012048;28;20057;-77
2021/05/04 07:15:53;;;;;;;4.10;1.95;;;;;;;19.17;38.19;100813.38;5013229;28;20062;-81
2021/05/04 07:18:20;;;;;;;3.28;2.20;;;;;;;19.30;39.44;100798.59;5011792;28;20034;-78
2021/05/04 07:20:46;;;;;;;2.45;1.85;;;;;;;19.02;38.27;100806.28;5013104;28;20160;-77
2021/05/04 07:23:13;;;;;;;2.63;1.70;;;;;;;19.07;39.83;100800.19;5013264;28;20057;-78
2021/05/04 07:25:40;;;;;;;3.60;2.60;;;;;;;19.20;38.59;100782.84;5011869;28;20022;-83
2021/05/04 07:28:06;;;;;;;3.75;2.05;;;;;;;19.37;38.72;100793.41;5013075;28;20080;-82
2021/05/04 07:30:32;;;;;;;4.05;1.75;;;;;;;19.50;41.22;100790.84;5011843;28;20021;-79
2021/05/04 07:33:01;;;;;;;15.45;2.38;;;;;;;19.73;37.49;100775.25;5011733;28;20030;-78
2021/05/04 07:35:27;;;;;;;7.40;1.90;;;;;;;19.96;37.58;100788.50;5011851;28;20132;-79
2021/05/04 07:37:55;;;;;;;2.38;1.67;;;;;;;20.00;37.71;100781.50;5013116;28;20448;-80
2021/05/04 07:40:20;;;;;;;3.25;1.70;;;;;;;20.01;38.71;100778.91;5011621;28;20037;-79
2021/05/04 07:42:46;;;;;;;2.63;1.83;;;;;;;19.94;37.11;100769.25;5012980;28;20029;-83
2021/05/04 07:45:11;;;;;;;3.47;1.85;;;;;;;20.08;37.24;100777.16;5012710;28;20029;-85
2021/05/04 07:47:37;;;;;;;3.90;1.85;;;;;;;20.14;36.46;100774.56;5012657;28;20040;-78
2021/05/04 07:50:04;;;;;;;2.63;1.60;;;;;;;20.12;36.95;100770.19;5012729;28;20109;-81
2021/05/04 07:52:30;;;;;;;4.25;1.52;;;;;;;20.19;34.00;100743.97;5011398;28;20037;-82
2021/05/04 07:54:55;;;;;;;7.75;1.98;;;;;;;20.43;34.98;100772.88;5049695;28;20119;-81
2021/05/04 07:57:22;;;;;;;3.38;2.00;;;;;;;20.57;33.79;100781.59;5050119;28;20045;-81
2021/05/04 07:59:48;;;;;;;3.60;1.70;;;;;;;20.36;33.45;100769.34;5033025;28;20043;-81
2021/05/04 08:02:14;;;;;;;2.90;1.50;;;;;;;20.28;33.23;100716.03;5049802;28;20063;-85
2021/05/04 08:04:39;;;;;;;2.58;1.60;;;;;;;20.68;34.09;100763.25;5032990;28;20186;-80
2021/05/04 08:07:08;;;;;;;3.20;1.73;;;;;;;20.58;32.75;100727.41;5049781;28;20037;-80
2021/05/04 08:09:37;;;;;;;5.25;1.60;;;;;;;20.89;31.02;100753.66;5033183;28;20036;-85
2021/05/04 08:12:04;;;;;;;6.68;1.67;;;;;;;21.05;31.31;100757.09;5049584;28;20064;-85
2021/05/04 08:14:31;;;;;;;3.63;1.80;;;;;;;21.12;33.17;100757.13;5049458;28;20383;-80
2021/05/04 08:16:57;;;;;;;3.80;1.88;;;;;;;21.13;31.28;100756.25;5049560;28;20090;-80
2021/05/04 08:19:23;;;;;;;3.85;1.67;;;;;;;21.02;30.93;100710.75;5049742;28;20043;-81
2021/05/04 08:21:50;;;;;;;2.83;1.55;;;;;;;21.25;31.18;100739.56;5049437;28;20025;-83
2021/05/04 08:24:16;;;;;;;6.05;1.77;;;;;;;21.05;31.95;100728.25;5049474;28;20501;-82
2021/05/04 08:26:42;;;;;;;3.53;1.50;;;;;;;21.04;30.18;100734.41;5018371;28;20052;-84
2021/05/04 08:29:08;;;;;;;3.25;1.75;;;;;;;20.85;31.71;100708.19;5012068;28;20094;-78
2021/05/04 08:31:34;;;;;;;3.65;1.80;;;;;;;20.74;32.12;100697.69;5010241;28;20041;-79
2021/05/04 08:34:01;;;;;;;51.78;3.58;;;;;;;21.01;31.80;100725.63;5010757;28;20491;-82
2021/05/04 08:36:27;;;;;;;3.95;1.60;;;;;;;21.04;31.84;100724.75;5012084;28;20092;-80
2021/05/04 08:38:52;;;;;;;2.85;1.73;;;;;;;21.30;32.07;100731.69;5010678;28;20033;-80
2021/05/04 08:41:18;;;;;;;2.17;1.52;;;;;;;21.38;33.37;100716.75;5010641;28;20048;-81
2021/05/04 08:43:48;;;;;;;3.38;1.70;;;;;;;21.53;34.31;100726.34;5011715;28;20436;-81
2021/05/04 08:46:14;;;;;;;6.28;1.73;;;;;;;21.71;34.12;100737.66;5010788;28;20369;-82
2021/05/04 08:48:43;;;;;;;3.92;1.73;;;;;;;21.67;30.71;100710.56;5010668;28;20026;-82
2021/05/04 08:51:11;;;;;;;4.32;1.50;;;;;;;21.52;33.32;100700.09;5010551;28;20511;-82
2021/05/04 08:53:37;;;;;;;2.45;1.50;;;;;;;21.64;30.80;100731.59;5010405;28;20029;-82
2021/05/04 08:56:03;;;;;;;4.30;1.55;;;;;;;21.38;30.77;100740.41;5010400;28;20021;-80
2021/05/04 08:58:31;;;;;;;6.68;1.88;;;;;;;21.20;32.02;100727.31;5010351;28;20041;-84
2021/05/04 09:00:56;;;;;;;3.75;1.80;;;;;;;21.11;32.04;100726.50;5010708;28;20033;-77
2021/05/04 09:03:50;;;;;;;3.88;1.60;;;;;;;21.35;31.39;100732.53;5011816;28;20473;-80
2021/05/04 09:06:25;;;;;;;1.70;1.50;;;;;;;21.56;32.37;100709.72;5010500;28;20022;-82
2021/05/04 09:08:58;;;;;;;3.33;1.77;;;;;;;21.80;30.91;100711.38;5011482;28;20400;-83
2021/05/04 09:17:26;;;;;;;3.40;1.42;;;;;;;21.65;31.81;100736.81;5011524;28;20033;-80
2021/05/04 09:20:09;;;;;;;2.65;1.70;;;;;;;21.72;30.73;100729.81;5011584;28;20034;-80
2021/05/04 09:22:44;;;;;;;3.53;1.87;;;;;;;21.23;34.94;100732.59;5011668;28;20515;-80
2021/05/04 09:25:28;;;;;;;3.85;1.70;;;;;;;21.52;30.40;100727.25;5011475;28;20022;-83
2021/05/04 09:28:13;;;;;;;2.95;1.67;;;;;;;21.65;35.78;100728.94;5010473;28;20037;-80
2021/05/04 09:30:39;;;;;;;5.35;2.17;;;;;;;21.60;32.44;100714.09;5011574;28;20018;-80
2021/05/04 09:33:10;;;;;;;5.30;1.90;;;;;;;21.72;33.46;100708.78;5028555;28;20107;-84
2021/05/04 09:35:36;;;;;;;3.30;1.58;;;;;;;22.06;32.12;100715.59;5025927;28;20041;-80
2021/05/04 09:38:05;;;;;;;4.25;1.70;;;;;;;22.19;31.81;100722.50;5008463;28;20041;-81
2021/05/04 09:40:34;;;;;;;2.42;1.60;;;;;;;22.31;30.61;100713.66;5006879;28;20040;-85
2021/05/04 09:43:02;;;;;;;3.38;1.55;;;;;;;22.10;27.60;100714.69;5010130;28;20051;-81
2021/05/04 09:45:28;;;;;;;3.88;1.70;;;;;;;22.11;28.79;100706.78;5011920;28;20041;-80
2021/05/04 09:48:16;;;;;;;3.15;1.77;;;;;;;22.54;28.31;100710.88;5011769;28;20030;-80
2021/05/04 09:51:02;;;;;;;3.42;1.60;;;;;;;22.32;30.21;100699.63;5010054;28;20072;-78
2021/05/04 09:56:34;;;;;;;6.65;1.90;;;;;;;22.70;31.09;100698.44;5020584;28;20056;-80
2021/05/04 09:59:01;;;;;;;6.32;2.03;;;;;;;22.54;29.12;100650.38;5011089;28;20050;-81
2021/05/04 10:01:27;;;;;;;6.50;2.05;;;;;;;23.07;28.54;100669.09;5015714;28;20033;-81
2021/05/04 10:03:52;;;;;;;7.68;2.33;;;;;;;22.96;30.27;100672.75;5010287;28;20408;-80
2021/05/04 10:06:20;;;;;;;5.15;2.22;;;;;;;22.64;29.23;100684.47;5012543;28;20033;-80
2021/05/04 10:08:47;;;;;;;6.30;2.13;;;;;;;22.90;28.72;100660.50;5023107;28;20026;-82
2021/05/04 10:11:20;;;;;;;7.25;2.40;;;;;;;22.93;28.05;100644.69;5025370;28;20463;-80
2021/05/04 10:13:51;;;;;;;10.00;2.53;;;;;;;23.61;28.42;100678.09;5009619;28;20065;-80
2021/05/04 10:16:22;;;;;;;8.27;2.08;;;;;;;23.86;26.20;100680.38;5011697;28;20022;-82
2021/05/04 10:18:48;;;;;;;9.05;2.10;;;;;;;23.80;27.67;100681.38;5008192;28;20112;-82
2021/05/04 10:21:14;;;;;;;5.45;1.95;;;;;;;23.96;26.05;100682.03;5005034;28;20030;-82
2021/05/04 10:23:45;;;;;;;9.65;2.20;;;;;;;23.99;25.97;100663.53;5000060;28;20022;-80
2021/05/04 10:26:16;;;;;;;9.43;2.25;;;;;;;24.19;25.79;100673.75;4994335;28;20026;-80
2021/05/04 10:28:54;;;;;;;8.40;2.50;;;;;;;23.92;29.59;100648.69;4997345;28;20033;-78
2021/05/04 10:31:52;;;;;;;6.90;1.80;;;;;;;24.22;25.47;100672.84;5011650;28;20095;-82
2021/05/04 10:34:23;;;;;;;7.82;2.00;;;;;;;24.37;25.65;100664.69;4993618;28;20096;-81
2021/05/04 10:36:51;;;;;;;5.15;1.80;;;;;;;24.53;25.68;100659.97;4990581;28;20043;-84
2021/05/04 10:39:39;;;;;;;6.22;1.80;;;;;;;24.59;24.75;100661.66;4974994;28;20038;-89
2021/05/04 10:42:07;;;;;;;6.38;2.33;;;;;;;24.82;24.61;100641.88;4999550;28;20210;-80
2021/05/04 10:44:58;;;;;;;5.80;1.98;;;;;;;24.85;26.59;100649.75;4993412;28;20042;-81
2021/05/04 10:47:48;;;;;;;7.13;2.03;;;;;;;25.00;24.77;100641.53;4992467;28;20512;-82
2021/05/04 10:50:27;;;;;;;6.03;2.25;;;;;;;25.13;25.69;100607.78;5010270;28;20052;-83
2021/05/04 10:53:01;;;;;;;2.40;1.40;;;;;;;25.03;25.31;100640.59;4991986;28;20393;-80
2021/05/04 10:55:52;;;;;;;4.35;1.85;;;;;;;24.81;25.14;100634.88;5009919;28;20280;-82
2021/05/04 10:58:21;;;;;;;2.60;2.38;;;;;;;24.65;25.93;100632.53;4913954;29;20068;-83
2021/05/04 11:03:33;;;;;;;4.32;2.92;;;;;;;24.83;25.68;100623.38;4899838;29;20045;-83
2021/05/04 11:06:03;;;;;;;5.18;4.38;;;;;;;24.78;25.08;100592.69;4925593;29;20044;-81
2021/05/04 11:08:40;;;;;;;3.45;2.42;;;;;;;24.44;25.06;100619.72;4913606;29;20036;-84
2021/05/04 11:11:26;;;;;;;4.07;2.38;;;;;;;24.23;25.69;100591.03;4926455;29;20045;-83
2021/05/04 11:13:59;;;;;;;3.30;2.20;;;;;;;24.13;25.25;100618.47;4931954;29;20059;-85
2021/05/04 11:16:44;;;;;;;10.15;2.53;;;;;;;24.46;26.59;100623.16;4928219;29;20048;-80
2021/05/04 11:19:33;;;;;;;4.03;1.70;;;;;;;24.61;25.85;100614.09;4933543;29;20102;-85
2021/05/04 11:21:58;;;;;;;3.03;1.45;;;;;;;24.78;26.76;100606.75;4932834;29;20148;-83
2021/05/04 11:24:34;;;;;;;3.97;1.42;;;;;;;24.96;26.33;100608.16;4933119;29;20036;-82
2021/05/04 11:27:21;;;;;;;3.58;1.55;;;;;;;25.24;27.15;100597.00;4933145;29;20043;-82
2021/05/04 11:29:49;;;;;;;4.97;1.50;;;;;;;24.57;27.02;100599.22;4950512;29;20144;-81
2021/05/04 11:32:15;;;;;;;2.85;1.48;;;;;;;24.27;27.10;100599.75;4950968;29;20126;-83
2021/05/04 11:34:50;;;;;;;4.35;1.58;;;;;;;24.91;26.09;100602.09;4961086;28;20481;-84
2021/05/04 11:37:28;;;;;;;3.33;1.30;;;;;;;24.73;26.13;100589.28;4985355;28;20057;-82